Ana Sayfa
METAR-TAF:

METAR-TAF

Havaalanları :

El Paso, Teksas, Amerika Birleşik Devletleri

Enlem: 31-48-40N, Boylam: 106-22-33W, yükseklik: 1206 m

Güncel hava durumu gözlemi

Rapor saat 18:51 UTC de 38 dakika önce yapıldı.
Rüzgar batı/güneybatıdan 14 kt ve 19 kt'a kadar ani rüzgarlar
Sıcaklık 36°C
Nem 8%
Basınç 1016 hPa
Görüş mesafesi: 16.1 km
14000 ft yükseklikte az bulutlu
25000 ft yükseklikte az bulutlu

METAR: KELP 191851Z 24014G19KT 10SM FEW140 FEW250 36/M03 A3001 RMK AO2 SLP072 T03561033

Saat: 14:29 (19:29 UTC)

Tahmin

Rapor saat 17:20 UTC de 2 saat ve 9 dakika önce yapıldı.
Ayın 19'si saat 18 UTC'den ayın 20'si saat 18 UTC'ye kadar geçerli Tahmin
Rüzgar batıdan 14 kt ve 23 kt'a kadar ani rüzgarlar
Görüş mesafesi: 10 km
12000 ft yükseklikte az bulutlu
25000 ft yükseklikte az bulutlu
Ayın 20'si saat 0200 UTC'den
Rüzgar batı/güneybatıdan 10 kt
Görüş mesafesi: 10 km
Açık gökyüzü

TAF: KELP 191720Z 1918/2018 26014G23KT P6SM FEW120 FEW250 FM200200 25010KT P6SM SKC

4.000'den fazla havaalanı için hava durumu gözlemleri ve tahminleri (METAR ve TAF raporları).

Kullanılabilir istasyonlar harita üzerinde sarı ve kırmızı noktalarla gösterilir.

İstasyonun adını görmek için fareyi noktanın üzerinde gezdirin.

Sonrasında hava gözlem ve tahminlerini görmek için tıklayın.

Haritayı değiştirmek için: yaklaştırmak için siyah artı işaretli yeşil düğmeye ve uzaklaştırmak için de eksi işaretli düğmeye hızla tıklayın; bitişik haritalar için yeşil okları kullanın.


METAR-TAF: